Time;durP1;ratioP1;P1;durP2;ratioP2;P2;SDS_P1;SDS_P2;PMS_P1;PMS_P2;Temp;Humidity;BMP_temperature;BMP_pressure;BME280_temperature;BME280_humidity;BME280_pressure;Samples;Min_cycle;Max_cycle;Signal;HPM_P1;HPM_P2
2022/06/05 00:00:20;;;;;;;11.90;10.80;;;;;;;15.81;85.03;98721.25;106382;1277;22681;-84
2022/06/05 00:03:25;;;;;;;15.70;11.50;;;;;;;15.78;85.20;98720.59;106327;1275;138911;-84
2022/06/05 00:06:08;;;;;;;14.00;12.60;;;;;;;15.78;85.46;98717.84;106885;1277;22630;-85
2022/06/05 00:09:03;;;;;;;14.00;12.60;;;;;;;15.76;85.14;98713.73;106532;1277;138457;-83
2022/06/05 00:12:02;;;;;;;12.00;10.80;;;;;;;15.74;85.06;98709.59;106538;1277;22600;-84
2022/06/05 00:14:30;;;;;;;12.60;10.90;;;;;;;15.74;85.00;98712.02;106253;1277;139748;-84
2022/06/05 00:16:57;;;;;;;13.00;11.70;;;;;;;15.72;84.79;98710.50;106440;1277;26535;-84
2022/06/05 00:19:41;;;;;;;13.30;11.80;;;;;;;15.68;84.51;98708.85;106570;1277;138050;-84
2022/06/05 00:22:22;;;;;;;13.80;12.40;;;;;;;15.64;84.74;98709.34;106696;1277;25394;-84
2022/06/05 00:24:49;;;;;;;13.00;11.70;;;;;;;15.60;84.68;98717.07;106617;1277;22553;-83
2022/06/05 00:28:10;;;;;;;12.50;11.30;;;;;;;15.56;84.68;98724.31;106332;1277;138838;-84
2022/06/05 00:30:56;;;;;;;13.50;11.50;;;;;;;15.54;84.56;98728.82;106904;1277;30751;-83
2022/06/05 00:33:34;;;;;;;13.70;12.30;;;;;;;15.52;84.91;98729.73;106356;1277;139000;-83
2022/06/05 00:36:24;;;;;;;13.90;12.50;;;;;;;15.51;85.26;98732.09;106330;1277;25226;-83
2022/06/05 00:39:29;;;;;;;15.60;12.40;;;;;;;15.49;85.31;98737.70;106170;1277;137856;-83
2022/06/05 00:42:16;;;;;;;15.20;13.50;;;;;;;15.48;85.18;98737.73;106340;1277;25297;-83
2022/06/05 00:44:57;;;;;;;18.40;15.10;;;;;;;15.46;85.19;98735.11;106556;1277;138535;-85
2022/06/05 00:47:40;;;;;;;17.10;15.40;;;;;;;15.43;85.37;98732.67;106236;1277;24405;-83
2022/06/05 00:50:15;;;;;;;20.60;16.20;;;;;;;15.42;85.27;98732.95;106038;1277;138762;-82
2022/06/05 00:52:46;;;;;;;18.60;16.00;;;;;;;15.38;85.52;98724.75;106524;1277;23321;-83
2022/06/05 00:55:37;;;;;;;18.50;15.30;;;;;;;15.35;85.61;98720.73;106127;1277;24318;-83
2022/06/05 00:58:04;;;;;;;18.90;15.00;;;;;;;15.33;85.85;98721.30;106428;1277;24398;-83
2022/06/05 01:00:52;;;;;;;19.70;15.40;;;;;;;15.33;86.18;98725.02;106480;1277;22551;-83
2022/06/05 01:03:21;;;;;;;27.10;17.70;;;;;;;15.35;86.28;98727.22;106575;1277;138228;-83
2022/06/05 01:05:48;;;;;;;;;;;;;;;15.35;86.06;98723.60;106566;1277;24479;-83
2022/06/05 01:08:29;;;;;;;19.10;17.10;;;;;;;15.30;85.88;98721.01;106968;1277;124640;-84
2022/06/05 01:11:37;;;;;;;22.50;15.50;;;;;;;15.24;85.88;98724.17;106492;1277;22681;-83
2022/06/05 01:14:27;;;;;;;18.00;15.40;;;;;;;15.22;86.17;98728.87;106285;1276;139289;-83
2022/06/05 01:17:31;;;;;;;17.40;15.50;;;;;;;15.22;86.46;98731.73;106293;1277;22567;-83
2022/06/05 01:20:37;;;;;;;18.30;16.40;;;;;;;15.26;86.54;98738.65;106428;1277;138636;-83
2022/06/05 01:23:45;;;;;;;19.10;16.60;;;;;;;15.24;86.89;98738.75;106518;1277;22815;-82
2022/06/05 01:26:34;;;;;;;16.90;15.00;;;;;;;15.25;86.93;98740.03;106493;1276;139496;-82
2022/06/05 01:29:24;;;;;;;17.80;15.20;;;;;;;15.28;87.10;98736.67;106434;1277;22588;-82
2022/06/05 01:32:13;;;;;;;16.30;14.70;;;;;;;15.30;87.10;98732.86;106265;1277;141607;-83
2022/06/05 01:34:47;;;;;;;16.10;14.40;;;;;;;15.31;87.11;98737.53;106544;1277;22591;-82
2022/06/05 01:37:35;;;;;;;16.40;14.70;;;;;;;15.33;87.20;98738.90;106903;1277;25068;-83
2022/06/05 01:40:05;;;;;;;19.00;15.70;;;;;;;15.36;87.24;98738.48;106586;1277;23976;-82
2022/06/05 01:42:37;;;;;;;16.40;14.80;;;;;;;15.39;87.49;98733.44;106475;1277;30584;-83
2022/06/05 01:45:29;;;;;;;21.40;13.70;;;;;;;15.43;87.22;98725.38;106407;1276;138738;-83
2022/06/05 01:48:18;;;;;;;15.80;14.00;;;;;;;15.46;86.86;98717.81;106416;1277;22659;-83
2022/06/05 01:50:51;;;;;;;16.10;14.60;;;;;;;15.46;86.36;98715.89;106413;1276;138272;-82
2022/06/05 01:53:42;;;;;;;16.90;15.20;;;;;;;15.44;86.07;98718.52;106659;1276;22543;-82
2022/06/05 01:56:34;;;;;;;17.40;15.50;;;;;;;15.35;85.82;98717.83;106441;1277;138140;-82
2022/06/05 01:59:12;;;;;;;15.80;14.20;;;;;;;15.30;85.95;98719.08;106788;1277;22612;-82
2022/06/05 02:01:58;;;;;;;16.40;14.30;;;;;;;15.27;85.79;98718.40;106644;1277;139443;-82
2022/06/05 02:05:01;;;;;;;16.40;14.40;;;;;;;15.24;85.87;98719.34;107061;1277;25302;-82
2022/06/05 02:07:35;;;;;;;17.90;16.10;;;;;;;15.25;86.41;98717.25;106401;1277;22565;-82
2022/06/05 02:10:33;;;;;;;19.10;15.50;;;;;;;15.25;86.11;98715.83;106460;1277;22552;-81
2022/06/05 02:13:15;;;;;;;18.60;15.90;;;;;;;15.14;85.64;98715.13;106519;1277;30361;-81
2022/06/05 02:15:56;;;;;;;19.50;15.90;;;;;;;15.07;85.67;98727.62;106585;1277;138729;-82
2022/06/05 02:18:37;;;;;;;18.00;15.70;;;;;;;14.95;85.90;98731.40;106181;1278;22553;-81
2022/06/05 02:21:05;;;;;;;20.10;17.00;;;;;;;14.86;86.14;98725.92;106253;1278;139723;-81
2022/06/05 02:23:46;;;;;;;19.10;16.20;;;;;;;14.78;86.14;98727.52;106647;1277;30680;-81
2022/06/05 02:26:13;;;;;;;18.00;16.00;;;;;;;14.70;86.30;98725.50;106281;1277;139149;-81
2022/06/05 02:28:54;;;;;;;17.00;15.20;;;;;;;14.65;86.75;98724.21;106805;1277;22546;-82
2022/06/05 02:31:40;;;;;;;16.80;15.00;;;;;;;14.65;87.28;98729.53;106552;1277;22551;-81
2022/06/05 02:34:43;;;;;;;16.80;15.00;;;;;;;14.69;87.65;98728.35;106404;1277;30429;-81
2022/06/05 02:37:47;;;;;;;17.40;15.50;;;;;;;14.74;87.70;98734.09;106477;1277;23821;-81
2022/06/05 02:40:40;;;;;;;23.60;15.20;;;;;;;14.79;87.47;98738.94;106838;1277;22607;-82
2022/06/05 02:43:33;;;;;;;15.60;14.10;;;;;;;14.68;86.63;98750.27;106511;1277;24265;-81
2022/06/05 02:46:26;;;;;;;14.70;13.30;;;;;;;14.52;86.65;98749.15;106503;1277;25905;-81
2022/06/05 02:49:22;;;;;;;15.10;13.60;;;;;;;14.47;87.69;98750.82;106635;1276;22561;-81
2022/06/05 02:51:51;;;;;;;15.30;13.80;;;;;;;14.49;87.59;98754.57;106508;1277;138866;-81
2022/06/05 02:54:39;;;;;;;16.30;14.70;;;;;;;14.51;87.68;98756.77;106217;1277;22569;-80
2022/06/05 02:57:20;;;;;;;18.80;15.00;;;;;;;14.58;87.96;98760.20;106079;1277;138064;-80
2022/06/05 03:00:05;;;;;;;15.20;13.70;;;;;;;14.58;87.57;98756.23;106531;1277;24275;-80
2022/06/05 03:05:46;;;;;;;14.80;13.30;;;;;;;14.61;87.00;98759.66;106511;1277;23172;-80
2022/06/05 03:08:15;;;;;;;16.50;14.80;;;;;;;14.62;86.78;98764.83;106724;1277;138796;-79
2022/06/05 03:10:56;;;;;;;19.80;16.40;;;;;;;14.63;87.09;98769.88;106783;1277;22688;-79
2022/06/05 03:13:37;;;;;;;17.10;15.30;;;;;;;14.66;87.20;98773.29;106162;1277;138180;-79
2022/06/05 03:16:18;;;;;;;15.30;13.70;;;;;;;14.68;87.18;98767.55;106330;1277;24328;-80
2022/06/05 03:18:59;;;;;;;17.00;15.30;;;;;;;14.66;86.78;98762.66;106170;1277;23072;-80
2022/06/05 03:21:29;;;;;;;17.60;15.80;;;;;;;14.67;87.38;98769.46;106022;1277;138562;-81
2022/06/05 03:24:10;;;;;;;18.20;15.60;;;;;;;14.70;87.30;98767.45;106708;1277;24250;-81
2022/06/05 03:26:37;;;;;;;18.60;16.60;;;;;;;14.72;87.54;98763.34;106305;1277;138705;-81
2022/06/05 03:29:18;;;;;;;18.60;16.10;;;;;;;14.74;87.28;98765.89;106580;1277;23938;-80
2022/06/05 03:31:58;;;;;;;17.60;15.20;;;;;;;14.78;87.51;98767.89;106523;1277;138712;-80
2022/06/05 03:34:39;;;;;;;21.00;16.60;;;;;;;14.84;87.43;98761.11;106415;1277;22553;-81
2022/06/05 03:37:20;;;;;;;19.40;17.00;;;;;;;14.86;87.57;98761.67;106448;1277;22547;-80
2022/06/05 03:40:01;;;;;;;21.90;18.60;;;;;;;14.91;87.52;98761.55;106577;1277;22554;-80
2022/06/05 03:42:43;;;;;;;22.60;18.40;;;;;;;14.93;87.44;98762.10;106681;1277;22542;-81
2022/06/05 03:45:24;;;;;;;22.70;17.90;;;;;;;14.94;87.64;98760.63;106412;1277;138542;-81
2022/06/05 03:48:05;;;;;;;20.10;16.90;;;;;;;14.96;87.63;98769.13;106544;1277;22537;-80
2022/06/05 03:50:46;;;;;;;23.30;19.10;;;;;;;15.00;87.72;98771.52;106824;1276;139381;-81
2022/06/05 03:53:27;;;;;;;21.70;18.40;;;;;;;15.03;87.93;98774.11;106744;1277;22633;-81
2022/06/05 03:56:12;;;;;;;20.80;17.90;;;;;;;15.06;88.26;98770.61;106632;1277;138131;-81
2022/06/05 03:58:40;;;;;;;20.70;16.30;;;;;;;15.12;88.19;98768.46;106279;1277;23690;-81
2022/06/05 04:01:23;;;;;;;22.00;16.90;;;;;;;15.18;88.01;98764.85;106918;1277;22657;-81
2022/06/05 04:04:04;;;;;;;19.90;15.90;;;;;;;15.25;88.16;98764.66;106779;1277;23471;-81
2022/06/05 04:06:44;;;;;;;21.20;16.80;;;;;;;15.33;88.09;98765.90;106926;1277;32588;-81
2022/06/05 04:09:11;;;;;;;23.30;17.20;;;;;;;15.39;87.76;98771.19;106438;1277;138024;-81
2022/06/05 04:11:52;;;;;;;29.30;15.70;;;;;;;15.43;87.73;98773.95;106308;1277;25557;-81
2022/06/05 04:14:33;;;;;;;17.50;14.40;;;;;;;15.40;86.88;98781.18;106259;1277;138634;-81
2022/06/05 04:17:00;;;;;;;20.80;15.10;;;;;;;15.31;86.30;98793.73;106485;1276;22572;-81
2022/06/05 04:19:27;;;;;;;19.10;15.10;;;;;;;15.21;86.74;98788.52;106280;1277;22542;-81
2022/06/05 04:21:54;;;;;;;16.40;12.80;;;;;;;15.16;86.92;98787.89;106431;1276;138484;-81
2022/06/05 04:24:36;;;;;;;21.00;15.30;;;;;;;15.10;87.07;98791.10;106979;1276;22425;-81
2022/06/05 04:27:18;;;;;;;21.90;15.60;;;;;;;15.07;87.40;98791.96;106571;1277;138254;-81
2022/06/05 04:30:00;;;;;;;23.80;15.10;;;;;;;15.10;87.79;98798.34;106510;1277;22538;-82
2022/06/05 04:32:27;;;;;;;19.30;14.60;;;;;;;15.12;88.09;98799.05;106444;1277;138236;-82
2022/06/05 04:35:08;;;;;;;19.60;14.20;;;;;;;15.20;88.66;98805.09;106592;1276;25319;-82
2022/06/05 04:37:49;;;;;;;18.90;13.20;;;;;;;15.27;87.93;98807.69;106519;1276;138750;-82
2022/06/05 04:40:30;;;;;;;19.60;15.40;;;;;;;15.30;87.58;98807.39;106729;1276;25434;-82
2022/06/05 04:42:57;;;;;;;24.80;16.90;;;;;;;15.36;88.32;98799.73;106550;1276;24243;-81
2022/06/05 04:45:24;;;;;;;24.90;15.70;;;;;;;15.48;88.60;98797.47;106415;1276;138542;-83
2022/06/05 04:47:51;;;;;;;16.60;13.80;;;;;;;15.56;87.58;98795.04;106742;1276;22557;-83
2022/06/05 04:50:32;;;;;;;17.20;14.70;;;;;;;15.48;86.70;98794.79;106534;1277;138788;-81
2022/06/05 04:53:13;;;;;;;19.90;15.80;;;;;;;15.46;87.08;98805.20;106317;1277;24212;-83
2022/06/05 04:55:53;;;;;;;19.70;16.00;;;;;;;15.46;87.55;98805.59;106592;1276;138091;-82
2022/06/05 04:58:35;;;;;;;14.40;11.80;;;;;;;15.46;87.75;98805.64;106414;1276;22885;-81
2022/06/05 05:01:19;;;;;;;18.90;14.80;;;;;;;15.46;87.93;98803.23;106094;1277;24679;-83
2022/06/05 05:03:50;;;;;;;15.20;12.30;;;;;;;15.44;87.98;98801.02;106147;1277;138915;-83
2022/06/05 05:06:32;;;;;;;18.80;14.20;;;;;;;15.44;87.80;98800.25;106514;1277;22562;-83
2022/06/05 05:09:13;;;;;;;14.60;11.70;;;;;;;15.46;87.85;98803.45;106083;1277;138601;-83
2022/06/05 05:11:54;;;;;;;16.10;13.20;;;;;;;15.46;87.99;98807.98;106145;1277;22541;-83
2022/06/05 05:14:21;;;;;;;16.00;13.60;;;;;;;15.43;87.66;98810.55;106173;1277;138681;-83
2022/06/05 05:16:48;;;;;;;20.40;16.10;;;;;;;15.44;88.10;98813.09;106405;1277;22537;-84
2022/06/05 05:19:15;;;;;;;22.20;17.40;;;;;;;15.48;88.81;98817.77;106061;1277;22534;-84
2022/06/05 05:21:56;;;;;;;17.80;15.00;;;;;;;15.59;89.28;98825.18;106358;1277;137873;-84
2022/06/05 05:24:37;;;;;;;20.10;16.70;;;;;;;15.66;88.75;98822.40;106400;1277;23047;-84
2022/06/05 05:27:20;;;;;;;23.90;17.70;;;;;;;15.74;88.61;98814.25;106303;1275;138605;-84
2022/06/05 05:29:47;;;;;;;21.70;16.60;;;;;;;15.85;88.65;98816.55;106374;1277;22543;-85
2022/06/05 05:32:14;;;;;;;20.40;17.10;;;;;;;15.98;89.01;98818.45;106290;1277;138807;-85
2022/06/05 05:34:41;;;;;;;22.80;19.00;;;;;;;16.10;88.39;98819.03;106330;1277;22555;-85
2022/06/05 05:37:08;;;;;;;23.70;17.70;;;;;;;16.23;87.94;98819.42;106171;1277;22537;-85
2022/06/05 05:42:34;;;;;;;21.10;16.70;;;;;;;16.52;87.71;98814.39;106674;1277;22701;-84
2022/06/05 05:45:16;;;;;;;23.40;18.30;;;;;;;16.64;87.43;98815.26;106219;1277;138219;-85
2022/06/05 05:47:43;;;;;;;23.80;19.20;;;;;;;16.70;86.83;98817.23;106269;1277;22714;-85
2022/06/05 05:50:15;;;;;;;23.90;19.40;;;;;;;16.74;86.59;98815.47;106493;1277;138428;-85
2022/06/05 05:52:55;;;;;;;25.70;17.60;;;;;;;16.76;86.38;98817.27;106414;1276;23913;-85
2022/06/05 05:55:22;;;;;;;20.10;16.90;;;;;;;16.81;86.17;98816.40;106362;1277;22537;-85
2022/06/05 05:58:03;;;;;;;23.90;18.70;;;;;;;16.88;85.79;98822.48;106284;1277;22553;-82
2022/06/05 06:00:30;;;;;;;23.20;18.50;;;;;;;16.91;85.96;98819.05;106601;1277;22568;-85
2022/06/05 06:02:57;;;;;;;20.90;17.90;;;;;;;16.97;85.64;98813.38;106141;1277;137983;-85
2022/06/05 06:05:25;;;;;;;21.40;17.30;;;;;;;16.99;85.37;98816.06;106402;1277;25333;-85
2022/06/05 06:07:52;;;;;;;19.90;17.00;;;;;;;17.05;85.29;98813.25;106708;1277;138750;-86
2022/06/05 06:10:19;;;;;;;20.20;17.10;;;;;;;17.11;84.95;98806.79;106551;1278;24377;-86
2022/06/05 06:12:46;;;;;;;22.20;18.20;;;;;;;17.18;84.80;98803.63;106757;1277;22675;-82
2022/06/05 06:15:13;;;;;;;21.30;18.00;;;;;;;17.22;84.15;98799.49;106873;1277;137774;-85
2022/06/05 06:17:54;;;;;;;19.80;17.10;;;;;;;17.31;84.44;98800.06;106478;1277;22804;-85
2022/06/05 06:20:21;;;;;;;18.40;16.40;;;;;;;17.42;84.37;98801.23;106638;1277;139150;-85
2022/06/05 06:22:48;;;;;;;19.70;17.80;;;;;;;17.53;83.80;98804.05;106203;1277;23592;-85
2022/06/05 06:25:29;;;;;;;19.20;17.20;;;;;;;17.54;83.07;98803.51;106445;1277;22738;-86
2022/06/05 06:28:10;;;;;;;20.70;18.50;;;;;;;17.57;82.92;98804.59;106608;1277;22556;-86
2022/06/05 06:30:51;;;;;;;19.40;17.30;;;;;;;17.61;82.49;98802.58;106261;1277;24094;-84
2022/06/05 06:33:32;;;;;;;19.20;17.00;;;;;;;17.64;82.18;98798.38;106458;1277;138861;-84
2022/06/05 06:36:01;;;;;;;19.70;17.60;;;;;;;17.71;82.36;98798.20;106577;1277;22861;-85
2022/06/05 06:38:32;;;;;;;20.20;18.30;;;;;;;17.80;82.36;98794.66;106624;1276;137824;-84
2022/06/05 06:41:16;;;;;;;24.00;19.50;;;;;;;17.88;82.38;98794.65;106436;1277;23157;-85
2022/06/05 06:43:45;;;;;;;21.40;19.20;;;;;;;17.97;82.25;98788.91;106398;1277;138142;-84
2022/06/05 06:46:13;;;;;;;19.80;17.70;;;;;;;18.07;82.24;98787.80;106528;1277;24342;-84
2022/06/05 06:48:40;;;;;;;20.20;18.10;;;;;;;18.21;82.20;98787.70;106809;1277;22631;-84
2022/06/05 06:51:21;;;;;;;23.50;18.80;;;;;;;18.27;81.88;98782.42;106083;1277;138983;-85
2022/06/05 06:54:02;;;;;;;21.50;19.20;;;;;;;18.34;81.99;98777.35;106900;1277;22537;-84
2022/06/05 06:56:33;;;;;;;20.70;17.90;;;;;;;18.39;81.88;98779.01;106296;1278;138324;-85
2022/06/05 06:59:14;;;;;;;19.70;17.40;;;;;;;18.47;81.59;98783.26;106432;1277;22769;-85
2022/06/05 07:01:41;;;;;;;20.70;18.50;;;;;;;18.53;81.19;98783.19;106473;1277;138524;-85
2022/06/05 07:04:08;;;;;;;20.60;18.60;;;;;;;18.63;80.51;98779.02;106573;1277;22590;-85
2022/06/05 07:06:49;;;;;;;20.40;18.40;;;;;;;18.76;80.59;98778.84;106540;1277;22547;-84
2022/06/05 07:09:17;;;;;;;20.70;18.70;;;;;;;18.91;80.48;98781.15;106341;1277;138002;-84
2022/06/05 07:11:44;;;;;;;21.10;18.80;;;;;;;19.01;79.81;98781.20;106852;1277;22576;-84
2022/06/05 07:14:11;;;;;;;19.80;16.90;;;;;;;19.12;79.81;98781.02;106528;1277;138870;-84
2022/06/05 07:16:39;;;;;;;20.20;18.10;;;;;;;19.24;79.51;98777.75;106837;1277;22580;-86
2022/06/05 07:19:06;;;;;;;20.10;18.20;;;;;;;19.36;79.47;98773.79;106554;1277;23203;-84
2022/06/05 07:21:47;;;;;;;20.40;18.00;;;;;;;19.48;78.85;98773.30;106389;1277;138150;-86
2022/06/05 07:24:16;;;;;;;21.00;18.30;;;;;;;19.56;78.10;98777.73;106453;1277;25503;-86
2022/06/05 07:26:43;;;;;;;17.20;15.60;;;;;;;19.64;78.04;98777.69;106512;1277;138442;-83
2022/06/05 07:29:10;;;;;;;18.00;16.10;;;;;;;19.74;77.32;98774.69;106609;1277;22556;-80
2022/06/05 07:31:51;;;;;;;17.60;15.90;;;;;;;19.88;77.07;98777.33;106782;1277;138700;-83
2022/06/05 07:34:18;;;;;;;15.90;14.20;;;;;;;20.00;75.94;98778.65;106516;1277;22535;-82
2022/06/05 07:36:45;;;;;;;14.70;13.30;;;;;;;20.08;73.85;98783.27;106667;1277;24209;-81
2022/06/05 07:39:12;;;;;;;15.90;13.80;;;;;;;20.18;73.19;98792.54;106468;1277;137978;-82
2022/06/05 07:41:40;;;;;;;14.60;13.00;;;;;;;20.23;72.25;98792.01;106600;1277;24223;-82
2022/06/05 07:44:07;;;;;;;16.10;14.60;;;;;;;20.33;72.20;98795.19;106397;1277;138434;-84
2022/06/05 07:46:45;;;;;;;15.20;13.70;;;;;;;20.40;71.51;98795.02;106469;1276;25267;-85
2022/06/05 07:49:13;;;;;;;14.00;12.70;;;;;;;20.49;71.11;98797.52;106764;1277;25235;-85
2022/06/05 07:54:39;;;;;;;14.80;13.30;;;;;;;20.71;70.69;98796.63;106427;1277;22698;-85
2022/06/05 07:57:12;;;;;;;14.40;13.10;;;;;;;20.81;69.84;98802.36;106522;1277;138221;-85
2022/06/05 07:59:44;;;;;;;14.50;13.10;;;;;;;20.87;68.58;98800.48;106935;1277;24317;-85
2022/06/05 08:02:23;;;;;;;13.60;12.40;;;;;;;20.95;68.57;98801.95;106890;1277;138034;-85
2022/06/05 08:04:52;;;;;;;14.20;13.00;;;;;;;21.03;67.95;98799.80;106695;1277;24645;-84
2022/06/05 08:07:25;;;;;;;14.70;13.20;;;;;;;21.15;67.52;98800.19;107065;1277;25253;-83
2022/06/05 08:09:52;;;;;;;13.60;12.40;;;;;;;21.27;66.77;98799.68;106860;1277;137942;-85
2022/06/05 08:12:22;;;;;;;13.30;12.00;;;;;;;21.38;66.75;98803.34;106703;1276;22541;-86
2022/06/05 08:14:51;;;;;;;12.50;11.30;;;;;;;21.50;66.29;98804.91;106875;1276;138011;-85
2022/06/05 08:17:19;;;;;;;;;;;;;;;21.62;66.35;98801.77;106863;1277;25264;-85
2022/06/05 08:20:01;;;;;;;11.30;10.20;;;;;;;21.74;65.94;98800.34;107167;1276;124416;-85
2022/06/05 08:22:42;;;;;;;10.70;9.70;;;;;;;21.87;64.70;98800.66;107194;1277;25373;-85
2022/06/05 08:25:22;;;;;;;9.50;8.60;;;;;;;22.01;64.26;98800.52;106660;1277;25303;-85
2022/06/05 08:27:50;;;;;;;8.10;7.30;;;;;;;22.14;61.83;98799.34;106644;1277;137453;-85
2022/06/05 08:30:31;;;;;;;8.70;7.80;;;;;;;22.25;61.08;98799.77;107042;1277;24212;-85
2022/06/05 08:32:58;;;;;;;8.90;8.10;;;;;;;22.34;60.26;98803.71;106642;1277;137570;-85
2022/06/05 08:35:25;;;;;;;9.30;8.40;;;;;;;22.45;59.60;98801.67;106562;1277;23297;-85
2022/06/05 08:43:58;;;;;;;9.30;8.50;;;;;;;22.90;58.40;98798.13;106103;1278;137653;-84
2022/06/05 08:46:32;;;;;;;9.30;8.50;;;;;;;22.97;57.82;98795.14;106551;1277;25396;-85
2022/06/05 08:49:21;;;;;;;9.90;8.90;;;;;;;23.05;57.89;98792.39;106521;1278;22797;-86
2022/06/05 08:52:05;;;;;;;9.50;8.60;;;;;;;23.18;58.03;98791.92;106669;1277;137607;-85
2022/06/05 08:55:13;;;;;;;8.80;8.00;;;;;;;23.33;57.24;98787.20;106529;1277;22719;-86
2022/06/05 08:58:09;;;;;;;8.20;7.50;;;;;;;23.47;55.65;98786.55;106506;1277;137759;-86
2022/06/05 09:00:55;;;;;;;8.70;7.30;;;;;;;23.65;55.80;98781.67;106490;1277;22594;-84
2022/06/05 09:03:30;;;;;;;7.90;7.10;;;;;;;23.80;54.58;98779.70;106626;1277;137800;-85
2022/06/05 09:06:14;;;;;;;7.40;6.60;;;;;;;23.95;54.24;98784.34;106964;1277;22574;-86
2022/06/05 09:08:58;;;;;;;8.40;6.10;;;;;;;24.07;51.75;98782.54;106521;1277;139326;-86
2022/06/05 09:11:34;;;;;;;7.60;7.00;;;;;;;24.14;51.30;98781.27;106441;1277;22723;-85
2022/06/05 09:14:34;;;;;;;7.20;6.50;;;;;;;24.24;50.82;98776.82;106334;1277;137710;-84
2022/06/05 09:17:18;;;;;;;6.90;6.30;;;;;;;24.37;51.20;98779.79;106795;1277;22550;-85
2022/06/05 09:19:49;;;;;;;7.80;7.00;;;;;;;24.52;50.69;98785.45;107031;1277;137601;-85
2022/06/05 09:22:41;;;;;;;7.30;6.60;;;;;;;24.60;50.04;98783.47;106762;1276;22568;-86
2022/06/05 09:25:39;;;;;;;6.50;5.90;;;;;;;24.72;49.20;98782.06;106772;1277;30908;-85
2022/06/05 09:28:35;;;;;;;6.40;5.90;;;;;;;24.82;49.02;98779.64;106871;1276;25382;-86
2022/06/05 09:31:26;;;;;;;7.00;6.30;;;;;;;24.97;48.61;98777.84;106808;1277;24285;-86
2022/06/05 09:33:56;;;;;;;6.50;5.70;;;;;;;25.14;49.34;98776.31;106967;1277;137157;-85
2022/06/05 09:36:27;;;;;;;6.10;5.60;;;;;;;25.30;47.70;98773.73;106709;1277;22686;-85
2022/06/05 09:39:31;;;;;;;9.90;5.70;;;;;;;25.47;47.72;98780.70;106286;1277;137619;-86
2022/06/05 09:42:22;;;;;;;6.90;6.30;;;;;;;25.63;46.19;98780.95;106889;1276;23034;-86
2022/06/05 09:44:58;;;;;;;7.10;6.50;;;;;;;25.43;46.13;98788.50;106061;1277;137606;-85
2022/06/05 09:47:49;;;;;;;6.80;5.80;;;;;;;25.32;46.26;98789.58;106273;1277;22553;-85
2022/06/05 09:50:26;;;;;;;5.80;5.20;;;;;;;25.41;45.91;98787.71;106789;1276;138272;-85
2022/06/05 09:52:53;;;;;;;5.90;5.40;;;;;;;25.54;45.51;98783.48;106732;1277;22587;-85
2022/06/05 09:55:27;;;;;;;6.50;5.90;;;;;;;25.52;45.84;98781.32;105942;1278;22786;-85
2022/06/05 09:58:24;;;;;;;6.80;6.30;;;;;;;25.40;45.80;98785.03;106328;1277;138923;-85
2022/06/05 10:00:54;;;;;;;7.80;6.40;;;;;;;25.23;46.68;98782.95;106009;1277;25484;-84
2022/06/05 10:03:42;;;;;;;6.50;5.90;;;;;;;25.33;47.34;98786.74;106584;1277;137558;-85
2022/06/05 10:06:24;;;;;;;5.90;4.80;;;;;;;25.50;47.26;98781.73;106383;1277;22551;-85
2022/06/05 10:09:14;;;;;;;5.30;4.90;;;;;;;25.78;45.55;98784.58;106754;1277;137796;-84
2022/06/05 10:12:00;;;;;;;5.70;4.10;;;;;;;26.08;44.55;98777.07;106528;1277;22556;-86
2022/06/05 10:14:30;;;;;;;4.60;4.20;;;;;;;26.26;42.74;98777.89;106046;1277;416635;-84
2022/06/05 10:17:20;;;;;;;4.90;4.50;;;;;;;26.27;41.94;98778.55;106756;1277;22752;-84
2022/06/05 10:20:24;;;;;;;4.70;4.30;;;;;;;26.05;41.30;98780.63;106284;1277;137923;-85
2022/06/05 10:23:30;;;;;;;5.10;4.30;;;;;;;25.96;42.38;98780.68;106729;1277;22545;-86
2022/06/05 10:26:23;;;;;;;4.00;3.70;;;;;;;26.13;42.85;98776.45;107074;1277;138289;-87
2022/06/05 10:29:06;;;;;;;4.30;3.90;;;;;;;26.39;42.76;98772.64;106536;1277;25313;-86
2022/06/05 10:31:57;;;;;;;7.80;4.10;;;;;;;26.64;42.27;98772.45;106855;1276;137834;-86
2022/06/05 10:35:02;;;;;;;5.60;3.80;;;;;;;26.87;41.46;98776.52;106703;1277;24422;-85
2022/06/05 10:37:46;;;;;;;4.60;4.00;;;;;;;27.13;40.32;98772.54;106695;1276;22597;-86
2022/06/05 10:40:32;;;;;;;3.60;3.30;;;;;;;27.30;38.72;98769.23;106528;1277;24333;-85
2022/06/05 10:43:16;;;;;;;4.30;3.70;;;;;;;27.40;39.23;98766.27;106661;1277;22553;-85
2022/06/05 10:46:05;;;;;;;6.30;3.30;;;;;;;27.28;37.12;98764.11;106136;1277;138805;-84
2022/06/05 10:48:44;;;;;;;3.70;3.40;;;;;;;27.11;37.58;98762.56;106837;1277;25396;-82
2022/06/05 10:51:32;;;;;;;3.80;3.50;;;;;;;27.18;37.85;98758.33;106364;1277;137854;-83
2022/06/05 10:54:32;;;;;;;5.50;3.50;;;;;;;27.33;37.04;98750.21;106316;1278;22533;-83
2022/06/05 10:57:13;;;;;;;4.40;3.40;;;;;;;27.43;37.27;98753.42;106289;1277;137623;-84
2022/06/05 11:00:06;;;;;;;3.90;3.50;;;;;;;27.21;36.99;98748.86;106552;1277;22704;-83
2022/06/05 11:02:46;;;;;;;3.60;3.20;;;;;;;26.95;36.93;98751.08;106282;1277;138162;-83
2022/06/05 11:05:32;;;;;;;3.30;3.10;;;;;;;26.97;36.95;98742.77;106264;1277;25398;-83
2022/06/05 11:08:40;;;;;;;5.60;3.70;;;;;;;27.10;37.58;98749.02;106710;1278;138080;-83
2022/06/05 11:14:29;;;;;;;4.20;3.80;;;;;;;27.42;38.12;98747.73;106193;1277;139241;-83
2022/06/05 11:17:35;;;;;;;4.30;3.20;;;;;;;27.64;37.78;98747.43;106697;1277;22551;-83
2022/06/05 11:20:24;;;;;;;4.00;3.60;;;;;;;27.81;36.84;98744.78;106438;1277;138283;-84
2022/06/05 11:22:57;;;;;;;3.40;3.20;;;;;;;27.95;35.61;98741.88;106511;1277;22618;-83
2022/06/05 11:25:49;;;;;;;4.20;3.10;;;;;;;28.13;35.49;98742.41;106157;1278;22566;-83
2022/06/05 11:28:53;;;;;;;3.30;3.00;;;;;;;28.37;35.32;98738.42;106418;1277;25357;-83
2022/06/05 11:31:56;;;;;;;4.40;3.50;;;;;;;28.62;35.49;98736.02;106129;1277;138182;-83
2022/06/05 11:34:29;;;;;;;3.40;3.20;;;;;;;28.48;35.09;98736.02;106723;1277;25372;-83
2022/06/05 11:37:34;;;;;;;4.30;3.30;;;;;;;28.44;34.31;98732.15;106285;1277;25252;-85
2022/06/05 11:40:19;;;;;;;5.90;3.30;;;;;;;28.37;34.83;98730.42;106271;1278;24340;-83
2022/06/05 11:43:26;;;;;;;3.40;3.10;;;;;;;28.43;34.02;98728.58;106622;1277;25411;-83
2022/06/05 11:46:17;;;;;;;4.30;3.20;;;;;;;28.48;34.63;98722.88;106255;1277;137544;-82
2022/06/05 11:49:06;;;;;;;4.90;3.20;;;;;;;28.55;33.50;98719.52;106455;1277;22561;-83
2022/06/05 11:51:39;;;;;;;3.50;3.20;;;;;;;28.63;33.32;98721.24;106469;1277;137758;-82
2022/06/05 11:54:19;;;;;;;4.30;3.20;;;;;;;28.42;34.40;98715.45;106274;1277;25413;-83
2022/06/05 11:57:05;;;;;;;3.50;3.20;;;;;;;28.14;34.91;98714.48;106085;1277;137733;-82
2022/06/05 12:00:05;;;;;;;3.50;3.20;;;;;;;27.82;34.77;98710.65;106612;1277;23936;-82
2022/06/05 12:02:51;;;;;;;3.70;3.40;;;;;;;27.81;34.38;98703.74;106279;1277;137579;-82
2022/06/05 12:05:37;;;;;;;3.50;3.30;;;;;;;27.86;33.78;98703.99;106071;1277;22751;-82
2022/06/05 12:08:09;;;;;;;3.80;3.00;;;;;;;27.81;33.84;98703.65;106219;1278;137620;-84
2022/06/05 12:11:14;;;;;;;3.40;3.10;;;;;;;27.90;33.76;98699.96;106233;1277;25406;-84
2022/06/05 12:13:55;;;;;;;3.60;2.90;;;;;;;28.11;34.62;98700.64;106090;1277;138457;-79
2022/06/05 12:17:17;;;;;;;3.70;3.40;;;;;;;28.43;34.83;98696.17;106161;1277;22549;-80
2022/06/05 12:19:47;;;;;;;3.10;2.90;;;;;;;28.79;34.90;98695.95;105874;1277;137645;-80
2022/06/05 12:22:53;;;;;;;3.60;3.00;;;;;;;29.05;33.92;98693.88;106409;1277;24097;-82
2022/06/05 12:25:26;;;;;;;3.80;3.00;;;;;;;29.26;32.73;98699.05;106317;1277;22566;-82
2022/06/05 12:28:35;;;;;;;3.30;3.10;;;;;;;29.17;33.31;98694.52;105946;1278;137303;-80
2022/06/05 12:31:23;;;;;;;3.40;3.10;;;;;;;28.80;32.74;98696.47;105780;1277;22617;-81